Survey, Nebraska
Current Conditions -  °F | °C
As of 4:53 PM on Sunday 23 Nov 2014 (Local Time) from KAIA Reporting Station
Broken Clouds Broken Clouds  
Wind Chill: 25°   Ceiling: 7000
Heat Index: 35°   Visibility: 10mi
Dew Point: 17°   Wind: 17mph
Humidity: 48%   Direction: 330°NNW
Pressure: 29.78"   Gusts: NA
Location:  41.9086°N, 101.954°W
Report Text: KAIA 232353Z AUTO 33015KT 10SM FEW049 SCT060 BKN070 02/M08 A2978 RMK AO2 SLP098 T00171083 10061 20017 51019
Loading
Personal Weather Stations






























Interactive Weather Map New forecast layout! Learn more

10-Day Weather Forecast

Advertisements
Track Severe Weather on mobile